createdAt,value
2022-10-11T00:01:34.130Z,12.55
2022-10-11T00:04:03.394Z,12.07
2022-10-11T00:06:32.662Z,15.77
2022-10-11T00:09:01.879Z,14.25
2022-10-11T00:11:31.126Z,15.45
2022-10-11T00:14:00.476Z,10.75
2022-10-11T00:16:29.762Z,14.95
2022-10-11T00:18:59.269Z,12.90
2022-10-11T00:21:29.205Z,10.85
2022-10-11T00:23:58.451Z,10.13
2022-10-11T00:26:27.641Z,11.63
2022-10-11T00:28:57.197Z,12.50
2022-10-11T00:31:26.715Z,11.70
2022-10-11T00:33:56.860Z,10.52
2022-10-11T00:36:26.085Z,9.82
2022-10-11T00:38:55.313Z,10.02
2022-10-11T00:41:24.734Z,9.43
2022-10-11T00:44:14.961Z,7.32
2022-10-11T00:46:55.728Z,7.57
2022-10-11T00:49:35.623Z,11.88
2022-10-11T00:52:14.186Z,7.88
2022-10-11T00:54:47.359Z,11.38
2022-10-11T00:57:20.458Z,9.02
2022-10-11T00:59:52.464Z,10.45
2022-10-11T01:02:22.718Z,10.50
2022-10-11T01:05:11.363Z,9.88
2022-10-11T01:07:43.428Z,9.82
2022-10-11T01:10:12.689Z,11.65
2022-10-11T01:13:08.790Z,8.63
2022-10-11T01:15:55.324Z,9.35
2022-10-11T01:18:40.907Z,9.57
2022-10-11T01:21:20.660Z,12.63
2022-10-11T01:24:21.527Z,11.13
2022-10-11T01:27:01.051Z,12.80
2022-10-11T01:29:51.835Z,7.63
2022-10-11T01:32:44.984Z,11.75
2022-10-11T01:35:37.770Z,8.05
2022-10-11T01:38:30.512Z,10.13
2022-10-11T01:41:20.532Z,7.70
2022-10-11T01:43:52.797Z,8.50
2022-10-11T01:46:22.965Z,10.05
2022-10-11T01:48:53.958Z,9.85
2022-10-11T01:51:28.915Z,6.35
2022-10-11T01:53:59.136Z,6.90
2022-10-11T01:56:48.430Z,6.82
2022-10-11T01:59:39.673Z,11.20
2022-10-11T02:02:14.457Z,7.80
2022-10-11T02:04:52.271Z,10.55
2022-10-11T02:07:47.080Z,7.40
2022-10-11T02:10:25.613Z,16.98
2022-10-11T02:13:03.674Z,7.47
2022-10-11T02:15:36.809Z,8.45
2022-10-11T02:18:11.814Z,10.40
2022-10-11T02:20:43.275Z,7.80
2022-10-11T02:23:18.977Z,7.63
2022-10-11T02:25:49.962Z,9.48
2022-10-11T02:28:24.764Z,14.57
2022-10-11T02:30:55.478Z,9.85
2022-10-11T02:33:32.634Z,9.57
2022-10-11T02:36:09.807Z,6.35
2022-10-11T02:38:46.650Z,9.48
2022-10-11T02:41:26.912Z,8.32
2022-10-11T02:44:02.611Z,9.38
2022-10-11T02:46:32.926Z,8.48
2022-10-11T02:49:02.590Z,8.63
2022-10-11T02:51:33.898Z,9.68
2022-10-11T02:54:03.187Z,9.13
2022-10-11T02:56:32.416Z,11.77
2022-10-11T02:59:01.708Z,10.90
2022-10-11T03:01:30.947Z,7.88
2022-10-11T03:04:00.270Z,13.18
2022-10-11T03:06:29.610Z,10.00
2022-10-11T03:08:58.978Z,8.23
2022-10-11T03:11:28.216Z,8.05
2022-10-11T03:13:57.528Z,8.75
2022-10-11T03:16:27.033Z,6.65
2022-10-11T03:18:56.242Z,6.53
2022-10-11T03:21:26.650Z,8.15
2022-10-11T03:23:55.943Z,6.22
2022-10-11T03:26:25.371Z,6.22
2022-10-11T03:28:54.710Z,8.65
2022-10-11T03:31:25.466Z,7.63
2022-10-11T03:33:54.884Z,7.72
2022-10-11T03:36:24.179Z,7.32
2022-10-11T03:38:53.466Z,7.00
2022-10-11T03:41:22.999Z,10.82
2022-10-11T03:43:52.173Z,8.80
2022-10-11T03:46:21.422Z,7.10
2022-10-11T03:48:51.139Z,7.75
2022-10-11T03:51:21.286Z,9.45
2022-10-11T03:53:50.586Z,7.07
2022-10-11T03:56:20.968Z,8.32
2022-10-11T03:58:50.247Z,7.10
2022-10-11T04:01:19.506Z,8.20
2022-10-11T04:03:48.817Z,9.65
2022-10-11T04:06:18.043Z,9.30
2022-10-11T04:08:47.319Z,7.35
2022-10-11T04:11:17.757Z,11.60
2022-10-11T04:13:46.989Z,6.32
2022-10-11T04:16:16.332Z,7.65
2022-10-11T04:18:45.754Z,7.28
2022-10-11T04:21:14.920Z,8.25
2022-10-11T04:23:44.132Z,8.02
2022-10-11T04:26:13.439Z,9.10
2022-10-11T04:28:42.929Z,10.02
2022-10-11T04:31:12.276Z,12.13
2022-10-11T04:33:41.725Z,8.77
2022-10-11T04:36:11.289Z,5.90
2022-10-11T04:38:40.813Z,7.15
2022-10-11T04:41:12.599Z,8.02
2022-10-11T04:43:42.246Z,12.85
2022-10-11T04:46:11.905Z,7.25
2022-10-11T04:48:41.443Z,7.97
2022-10-11T04:51:10.641Z,9.48
2022-10-11T04:53:39.882Z,7.50
2022-10-11T04:56:12.987Z,8.13
2022-10-11T04:58:42.635Z,7.90
2022-10-11T05:01:12.157Z,6.07
2022-10-11T05:03:44.489Z,10.65
2022-10-11T05:06:14.649Z,6.65
2022-10-11T05:08:44.028Z,6.75
2022-10-11T05:11:16.174Z,9.13
2022-10-11T05:13:46.913Z,5.15
2022-10-11T05:16:17.338Z,8.57
2022-10-11T05:18:47.095Z,7.35
2022-10-11T05:21:23.933Z,5.65
2022-10-11T05:23:54.402Z,9.05
2022-10-11T05:26:25.598Z,7.65
2022-10-11T05:28:55.268Z,8.35
2022-10-11T05:31:24.726Z,6.80
2022-10-11T05:33:54.014Z,8.70
2022-10-11T05:36:23.348Z,13.50
2022-10-11T05:38:52.728Z,7.65
2022-10-11T05:41:22.544Z,8.57
2022-10-11T05:43:51.819Z,8.02
2022-10-11T05:46:20.959Z,5.97
2022-10-11T05:48:50.331Z,7.35
2022-10-11T05:51:20.319Z,5.63
2022-10-11T05:53:49.674Z,9.07
2022-10-11T05:56:24.726Z,10.75
2022-10-11T05:58:58.703Z,12.68
2022-10-11T06:01:31.050Z,7.43
2022-10-11T06:04:00.406Z,7.57
2022-10-11T06:06:30.061Z,8.93
2022-10-11T06:08:59.412Z,8.25
2022-10-11T06:11:32.893Z,7.10
2022-10-11T06:14:02.242Z,10.38
2022-10-11T06:16:31.439Z,8.05
2022-10-11T06:19:00.775Z,7.45
2022-10-11T06:21:30.042Z,9.43
2022-10-11T06:24:01.535Z,6.30
2022-10-11T06:26:31.862Z,9.23
2022-10-11T06:29:01.230Z,10.00
2022-10-11T06:31:30.559Z,8.27
2022-10-11T06:34:01.271Z,7.10
2022-10-11T06:36:31.604Z,8.05
2022-10-11T06:39:02.840Z,6.22
2022-10-11T06:41:33.004Z,9.73
2022-10-11T06:44:02.254Z,8.27
2022-10-11T06:46:34.701Z,9.73
2022-10-11T06:49:04.012Z,6.40
2022-10-11T06:51:33.898Z,9.52
2022-10-11T06:54:03.747Z,5.70
2022-10-11T06:56:33.470Z,6.50
2022-10-11T06:59:04.130Z,7.03
2022-10-11T07:01:34.178Z,5.32
2022-10-11T07:04:04.713Z,7.47
2022-10-11T07:06:37.537Z,8.23
2022-10-11T07:09:07.712Z,6.35
2022-10-11T07:11:37.505Z,7.50
2022-10-11T07:14:09.203Z,8.30
2022-10-11T07:16:38.959Z,6.22
2022-10-11T07:19:09.108Z,10.15
2022-10-11T07:21:38.526Z,10.68
2022-10-11T07:24:08.220Z,8.02
2022-10-11T07:26:38.899Z,7.80
2022-10-11T07:29:11.599Z,6.35
2022-10-11T07:31:42.893Z,5.18
2022-10-11T07:34:12.775Z,9.73
2022-10-11T07:36:42.068Z,8.63
2022-10-11T07:39:11.365Z,5.93
2022-10-11T07:41:45.512Z,5.60
2022-10-11T07:44:16.238Z,10.48
2022-10-11T07:46:45.615Z,13.60
2022-10-11T07:52:14.456Z,6.57
2022-10-11T07:57:53.767Z,6.90
2022-10-11T08:00:23.376Z,6.47
2022-10-11T08:02:52.707Z,7.15
2022-10-11T08:05:22.163Z,6.72
2022-10-11T08:07:51.418Z,5.53
2022-10-11T08:10:20.827Z,8.30
2022-10-11T08:12:50.465Z,10.63
2022-10-11T08:15:19.938Z,12.10
2022-10-11T08:17:49.684Z,8.63
2022-10-11T08:20:18.910Z,7.63
2022-10-11T08:22:48.183Z,8.73
2022-10-11T08:25:17.748Z,7.57
2022-10-11T08:27:47.581Z,7.13
2022-10-11T08:30:17.081Z,10.73
2022-10-11T08:32:49.607Z,5.93
2022-10-11T08:35:19.358Z,17.27
2022-10-11T08:37:48.638Z,10.00
2022-10-11T08:40:20.701Z,6.05
2022-10-11T08:43:13.980Z,9.98
2022-10-11T08:45:52.270Z,8.90
2022-10-11T08:48:37.075Z,10.55
2022-10-11T08:51:21.332Z,9.88
2022-10-11T08:54:01.355Z,9.38
2022-10-11T08:56:34.392Z,6.65
2022-10-11T08:59:10.470Z,12.65
2022-10-11T09:01:45.837Z,5.78
2022-10-11T09:04:17.660Z,21.40
2022-10-11T09:06:56.066Z,10.17
2022-10-11T09:09:27.247Z,8.82
2022-10-11T09:12:15.946Z,10.65
2022-10-11T09:14:50.742Z,8.00
2022-10-11T09:17:43.629Z,6.57
2022-10-11T09:20:53.244Z,10.48
2022-10-11T09:23:48.749Z,8.43
2022-10-11T09:26:31.308Z,9.45
2022-10-11T09:29:11.717Z,8.93
2022-10-11T09:31:41.020Z,16.38
2022-10-11T09:34:16.085Z,12.85
2022-10-11T09:36:51.640Z,8.52
2022-10-11T09:39:38.249Z,9.63
2022-10-11T09:42:11.123Z,23.35
2022-10-11T09:44:50.540Z,16.88
2022-10-11T09:47:24.409Z,12.05
2022-10-11T09:50:01.605Z,12.60
2022-10-11T09:52:31.151Z,8.70
2022-10-11T09:55:02.821Z,9.18
2022-10-11T09:57:35.115Z,8.75
2022-10-11T10:00:25.593Z,8.40
2022-10-11T10:02:56.567Z,9.82
2022-10-11T10:05:38.576Z,7.97
2022-10-11T10:08:24.824Z,12.15
2022-10-11T10:11:11.466Z,7.75
2022-10-11T10:14:00.308Z,7.40
2022-10-11T10:16:32.306Z,8.02
2022-10-11T10:19:08.394Z,9.73
2022-10-11T10:21:45.854Z,29.52
2022-10-11T10:24:23.465Z,8.75
2022-10-11T10:27:10.456Z,11.73
2022-10-11T10:29:40.286Z,12.77
2022-10-11T10:32:15.498Z,10.32
2022-10-11T10:34:56.677Z,14.60
2022-10-11T10:37:41.050Z,16.35
2022-10-11T10:40:24.884Z,9.40
2022-10-11T10:42:54.329Z,11.90
2022-10-11T10:45:31.827Z,9.23
2022-10-11T10:48:01.913Z,10.07
2022-10-11T10:50:45.639Z,9.00
2022-10-11T10:53:31.475Z,11.25
2022-10-11T10:56:05.127Z,14.23
2022-10-11T10:59:10.037Z,12.45
2022-10-11T11:02:15.861Z,23.08
2022-10-11T11:05:17.704Z,10.65
2022-10-11T11:08:06.875Z,12.13
2022-10-11T11:10:48.938Z,13.82
2022-10-11T11:13:39.281Z,11.90
2022-10-11T11:16:34.896Z,11.25
2022-10-11T11:19:24.245Z,16.30
2022-10-11T11:22:32.557Z,20.58
2022-10-11T11:25:27.191Z,14.38
2022-10-11T11:28:01.796Z,13.25
2022-10-11T11:31:01.927Z,12.57
2022-10-11T11:33:51.418Z,12.10
2022-10-11T11:36:28.057Z,16.67
2022-10-11T11:39:03.217Z,18.17
2022-10-11T11:41:38.623Z,14.88
2022-10-11T11:44:31.767Z,16.45
2022-10-11T11:49:38.141Z,20.42
2022-10-11T11:52:13.277Z,18.63
2022-10-11T11:54:50.325Z,16.48
2022-10-11T11:57:40.558Z,21.98
2022-10-11T12:00:21.303Z,20.45
2022-10-11T12:02:56.093Z,18.90
2022-10-11T12:05:29.968Z,18.73
2022-10-11T12:08:05.524Z,20.90
2022-10-11T12:10:58.420Z,19.38
2022-10-11T12:13:38.458Z,19.33
2022-10-11T12:16:11.200Z,16.98
2022-10-11T12:21:37.412Z,16.52
2022-10-11T12:24:15.125Z,22.20
2022-10-11T12:26:47.221Z,19.60
2022-10-11T12:29:24.539Z,16.17
2022-10-11T12:32:02.231Z,17.52
2022-10-11T12:34:42.616Z,17.08
2022-10-11T12:37:28.258Z,15.13
2022-10-11T12:39:59.560Z,15.65
2022-10-11T12:42:38.286Z,18.45
2022-10-11T12:45:15.900Z,18.60
2022-10-11T12:47:54.161Z,17.05
2022-10-11T12:50:50.103Z,15.40
2022-10-11T12:53:26.984Z,15.05
2022-10-11T12:56:01.944Z,16.48
2022-10-11T12:58:40.244Z,18.85
2022-10-11T13:01:15.665Z,19.02
2022-10-11T13:03:47.418Z,20.88
2022-10-11T13:06:20.885Z,19.42
2022-10-11T13:08:56.565Z,14.70
2022-10-11T13:11:34.195Z,19.45
2022-10-11T13:14:11.406Z,16.95
2022-10-11T13:17:01.875Z,17.48
2022-10-11T13:19:32.972Z,18.55
2022-10-11T13:22:08.794Z,17.23
2022-10-11T13:24:41.720Z,16.85
2022-10-11T13:27:21.992Z,20.52
2022-10-11T13:29:53.593Z,19.90
2022-10-11T13:32:27.631Z,20.15
2022-10-11T13:35:02.410Z,18.38
2022-10-11T13:37:40.125Z,24.20
2022-10-11T13:40:15.670Z,18.98
2022-10-11T13:42:45.646Z,20.02
2022-10-11T13:45:17.658Z,19.23
2022-10-11T13:47:47.603Z,18.65
2022-10-11T13:50:18.784Z,21.45
2022-10-11T13:52:57.645Z,17.42
2022-10-11T13:55:30.766Z,17.98
2022-10-11T13:58:02.150Z,20.05
2022-10-11T14:00:36.015Z,17.75
2022-10-11T14:03:16.299Z,20.45
2022-10-11T14:06:03.226Z,24.02
2022-10-11T14:08:37.126Z,24.23
2022-10-11T14:11:07.541Z,21.70
2022-10-11T14:13:39.260Z,21.40
2022-10-11T14:16:10.594Z,21.65
2022-10-11T14:18:40.933Z,25.02
2022-10-11T14:21:30.647Z,21.52
2022-10-11T14:24:02.877Z,26.27
2022-10-11T14:26:37.036Z,23.25
2022-10-11T14:29:10.616Z,24.23
2022-10-11T14:31:41.889Z,23.27
2022-10-11T14:34:19.539Z,20.75
2022-10-11T14:36:49.622Z,22.13
2022-10-11T14:39:21.917Z,24.90
2022-10-11T14:41:52.310Z,20.48
2022-10-11T14:44:22.549Z,19.20
2022-10-11T14:46:54.833Z,23.90
2022-10-11T14:49:27.145Z,21.67
2022-10-11T14:51:58.780Z,21.52
2022-10-11T14:54:29.946Z,20.92
2022-10-11T14:57:01.578Z,24.92
2022-10-11T14:59:36.026Z,20.38
2022-10-11T15:02:07.649Z,27.52
2022-10-11T15:04:36.989Z,21.73
2022-10-11T15:07:06.834Z,21.70
2022-10-11T15:09:36.054Z,21.33
2022-10-11T15:12:05.506Z,20.85
2022-10-11T15:14:34.758Z,22.85
2022-10-11T15:17:04.034Z,21.30
2022-10-11T15:19:33.286Z,19.20
2022-10-11T15:22:03.746Z,24.83
2022-10-11T15:24:33.041Z,20.08
2022-10-11T15:27:02.291Z,21.92
2022-10-11T15:29:31.645Z,22.25
2022-10-11T15:32:00.888Z,21.98
2022-10-11T15:34:30.107Z,21.00
2022-10-11T15:36:59.354Z,20.17
2022-10-11T15:39:34.014Z,20.02
2022-10-11T15:42:03.324Z,18.00
2022-10-11T15:44:32.586Z,19.95
2022-10-11T15:47:01.774Z,19.80
2022-10-11T15:49:31.026Z,20.20
2022-10-11T15:52:00.285Z,19.55
2022-10-11T15:54:29.552Z,22.10
2022-10-11T15:56:59.005Z,19.70
2022-10-11T15:59:28.244Z,21.55
2022-10-11T16:01:57.538Z,22.80
2022-10-11T16:04:26.778Z,21.85
2022-10-11T16:06:56.140Z,21.52
2022-10-11T16:09:25.884Z,21.35
2022-10-11T16:11:55.106Z,20.35
2022-10-11T16:14:24.463Z,20.08
2022-10-11T16:16:53.661Z,21.60
2022-10-11T16:19:22.981Z,20.65
2022-10-11T16:21:52.280Z,22.63
2022-10-11T16:24:21.498Z,22.23
2022-10-11T16:26:50.750Z,17.20
2022-10-11T16:29:19.981Z,19.15
2022-10-11T16:31:49.190Z,21.00
2022-10-11T16:34:18.526Z,20.83
2022-10-11T16:36:47.807Z,18.50
2022-10-11T16:39:20.818Z,20.08
2022-10-11T16:41:50.116Z,19.92
2022-10-11T16:44:22.426Z,20.00
2022-10-11T16:46:51.770Z,18.45
2022-10-11T16:49:24.292Z,22.02
2022-10-11T16:51:55.166Z,17.83
2022-10-11T16:54:24.944Z,21.80
2022-10-11T16:56:54.631Z,20.30
2022-10-11T17:03:14.962Z,21.25
2022-10-11T17:05:44.122Z,19.27
2022-10-11T17:08:13.399Z,19.23
2022-10-11T17:10:45.804Z,22.92
2022-10-11T17:13:15.750Z,21.75
2022-10-11T17:15:44.999Z,18.85
2022-10-11T17:18:14.359Z,19.10
2022-10-11T17:20:43.583Z,20.67
2022-10-11T17:23:13.407Z,17.80
2022-10-11T17:25:45.177Z,17.00
2022-10-11T17:28:14.767Z,19.30
2022-10-11T17:30:44.065Z,15.40
2022-10-11T17:33:13.421Z,17.23
2022-10-11T17:35:42.669Z,14.80
2022-10-11T17:38:11.885Z,15.18
2022-10-11T17:40:41.161Z,17.30
2022-10-11T17:43:10.596Z,15.75
2022-10-11T17:45:43.815Z,17.77
2022-10-11T17:48:14.052Z,16.83
2022-10-11T17:50:48.230Z,15.65
2022-10-11T17:53:19.711Z,16.00
2022-10-11T17:55:51.845Z,15.73
2022-10-11T17:58:21.614Z,19.40
2022-10-11T18:00:51.016Z,16.50
2022-10-11T18:03:20.352Z,17.67
2022-10-11T18:05:49.525Z,18.00
2022-10-11T18:08:18.679Z,21.25
2022-10-11T18:10:47.940Z,20.45
2022-10-11T18:13:17.190Z,19.10
2022-10-11T18:15:49.103Z,21.90
2022-10-11T18:18:20.956Z,19.85
2022-10-11T18:20:51.523Z,18.63
2022-10-11T18:23:21.300Z,21.58
2022-10-11T18:25:50.732Z,22.73
2022-10-11T18:28:20.169Z,18.52
2022-10-11T18:30:50.115Z,19.45
2022-10-11T18:33:19.521Z,20.88
2022-10-11T18:35:48.743Z,20.55
2022-10-11T18:38:17.984Z,19.85
2022-10-11T18:40:47.395Z,22.38
2022-10-11T18:43:16.674Z,20.67
2022-10-11T18:45:45.888Z,20.80
2022-10-11T18:48:15.409Z,25.65
2022-10-11T18:50:44.638Z,24.13
2022-10-11T18:53:13.862Z,18.05
2022-10-11T18:55:43.112Z,20.23
2022-10-11T18:58:12.390Z,23.00
2022-10-11T19:00:41.828Z,23.27
2022-10-11T19:03:11.239Z,26.70
2022-10-11T19:05:41.187Z,31.20
2022-10-11T19:08:10.366Z,22.63
2022-10-11T19:10:39.641Z,18.13
2022-10-11T19:13:08.900Z,18.90
2022-10-11T19:15:38.350Z,18.83
2022-10-11T19:18:07.645Z,22.73
2022-10-11T19:20:37.664Z,41.60
2022-10-11T19:23:06.987Z,22.42
2022-10-11T19:25:38.402Z,18.60
2022-10-11T19:28:09.602Z,18.50
2022-10-11T19:30:41.558Z,27.85
2022-10-11T19:33:12.929Z,23.10
2022-10-11T19:35:43.691Z,20.98
2022-10-11T19:38:12.977Z,20.92
2022-10-11T19:40:42.201Z,17.75
2022-10-11T19:43:11.434Z,20.35
2022-10-11T19:45:40.783Z,22.60
2022-10-11T19:48:10.016Z,19.38
2022-10-11T19:50:39.857Z,20.05
2022-10-11T19:53:09.284Z,18.50
2022-10-11T19:55:40.902Z,16.60
2022-10-11T19:58:12.341Z,21.65
2022-10-11T20:00:41.530Z,22.58
2022-10-11T20:03:10.751Z,19.05
2022-10-11T20:05:40.053Z,18.40
2022-10-11T20:08:09.341Z,18.17
2022-10-11T20:10:38.495Z,18.38
2022-10-11T20:13:12.988Z,18.02
2022-10-11T20:15:42.335Z,18.83
2022-10-11T20:18:11.492Z,17.83
2022-10-11T20:20:40.757Z,19.50
2022-10-11T20:23:12.583Z,19.35
2022-10-11T20:25:43.999Z,18.98
2022-10-11T20:28:13.212Z,23.65
2022-10-11T20:30:45.808Z,20.40
2022-10-11T20:33:15.092Z,17.23
2022-10-11T20:35:44.313Z,18.13
2022-10-11T20:38:13.556Z,17.48
2022-10-11T20:40:43.197Z,16.63
2022-10-11T20:43:12.427Z,21.55
2022-10-11T20:45:41.804Z,20.67
2022-10-11T20:48:11.262Z,16.27
2022-10-11T20:50:40.455Z,19.55
2022-10-11T20:53:12.946Z,20.95
2022-10-11T20:55:47.571Z,16.35
2022-10-11T20:58:17.105Z,22.85
2022-10-11T21:00:46.560Z,16.23
2022-10-11T21:03:16.466Z,17.48
2022-10-11T21:05:46.121Z,19.80
2022-10-11T21:08:15.498Z,20.52
2022-10-11T21:10:53.840Z,17.40
2022-10-11T21:13:24.032Z,17.42
2022-10-11T21:15:53.304Z,17.15
2022-10-11T21:18:22.965Z,19.75
2022-10-11T21:20:52.294Z,17.02
2022-10-11T21:23:21.658Z,17.35
2022-10-11T21:25:50.882Z,20.48
2022-10-11T21:28:20.152Z,19.17
2022-10-11T21:30:49.351Z,17.52
2022-10-11T21:33:18.564Z,17.85
2022-10-11T21:35:47.960Z,16.15
2022-10-11T21:38:17.151Z,20.05
2022-10-11T21:40:46.380Z,21.77
2022-10-11T21:43:15.607Z,19.30
2022-10-11T21:45:44.779Z,16.52
2022-10-11T21:48:14.008Z,19.50
2022-10-11T21:50:43.220Z,17.50
2022-10-11T21:53:12.643Z,17.23
2022-10-11T21:55:41.873Z,19.88
2022-10-11T21:58:11.153Z,17.67
2022-10-11T22:00:43.182Z,16.23
2022-10-11T22:03:12.889Z,19.53
2022-10-11T22:05:49.819Z,17.40
2022-10-11T22:08:19.332Z,21.23
2022-10-11T22:10:57.022Z,19.17
2022-10-11T22:13:27.554Z,16.98
2022-10-11T22:15:58.035Z,18.08
2022-10-11T22:18:30.890Z,17.95
2022-10-11T22:21:21.045Z,21.38
2022-10-11T22:23:52.233Z,21.02
2022-10-11T22:26:25.158Z,20.40
2022-10-11T22:31:24.455Z,19.17
2022-10-11T22:33:58.650Z,17.85
2022-10-11T22:36:29.040Z,24.33
2022-10-11T22:38:58.424Z,19.45
2022-10-11T22:41:27.744Z,21.85
2022-10-11T22:43:56.963Z,23.00
2022-10-11T22:46:26.201Z,19.52
2022-10-11T22:48:55.407Z,19.10
2022-10-11T22:51:25.092Z,19.55
2022-10-11T22:53:54.434Z,18.45
2022-10-11T22:56:23.687Z,19.02
2022-10-11T22:58:52.956Z,23.65
2022-10-11T23:01:22.214Z,22.20
2022-10-11T23:03:54.100Z,20.02
2022-10-11T23:06:23.396Z,21.20
2022-10-11T23:08:52.690Z,18.75
2022-10-11T23:11:21.953Z,19.13
2022-10-11T23:13:51.247Z,17.63
2022-10-11T23:16:20.525Z,16.98
2022-10-11T23:18:49.743Z,20.05
2022-10-11T23:21:18.997Z,22.55
2022-10-11T23:23:49.257Z,19.88
2022-10-11T23:26:18.887Z,17.75
2022-10-11T23:28:48.677Z,20.13
2022-10-11T23:31:20.000Z,19.55
2022-10-11T23:33:50.115Z,19.17
2022-10-11T23:36:21.769Z,20.10
2022-10-11T23:38:55.210Z,17.92
2022-10-11T23:41:26.810Z,21.60
2022-10-11T23:43:56.501Z,17.10
2022-10-11T23:46:26.195Z,17.38
2022-10-11T23:48:55.454Z,20.90
2022-10-11T23:51:24.710Z,20.27
2022-10-11T23:53:53.914Z,20.80
2022-10-11T23:56:23.385Z,21.45
2022-10-11T23:58:52.821Z,19.75
